Riverside, New Mexico
Current Conditions -  °F | °C
As of 4:35 PM on Monday 20 Oct 2014 (Local Time) from KLAM Reporting Station
Scattered Clouds Scattered Clouds  
Wind Chill: 61°   Ceiling: Unl
Heat Index: 61°   Visibility: 10mi
Dew Point: 38°   Wind: 8mph
Humidity: 42%   Direction: 180°S
Pressure: 30.21"   Gusts: NA
Location:  35.9775°N, 106.158°W
Report Text: KLAM 202235Z AUTO 18007KT 10SM SCT110 16/03 A3021 RMK AO2 T01610031
Loading
Personal Weather Stations






























Interactive Weather Map
Tropical Storm Tracking
New forecast layout! Learn more

10-Day Weather Forecast

Advertisements
Track Severe Weather on mobile